sensor_id;sensor_type;location;lat;lon;timestamp;P1;durP1;ratioP1;P2;durP2;ratioP2
23812;SDS011;12087;45.190;5.688;2023-04-26T00:03:32;3.70;;;2.00;;
23812;SDS011;12087;45.190;5.688;2023-04-26T00:08:56;4.43;;;2.08;;
23812;SDS011;12087;45.190;5.688;2023-04-26T00:14:18;6.65;;;2.13;;
23812;SDS011;12087;45.190;5.688;2023-04-26T00:19:40;3.60;;;2.38;;
23812;SDS011;12087;45.190;5.688;2023-04-26T00:25:05;6.18;;;2.20;;
23812;SDS011;12087;45.190;5.688;2023-04-26T00:30:27;4.25;;;2.10;;
23812;SDS011;12087;45.190;5.688;2023-04-26T00:35:49;3.42;;;2.17;;
23812;SDS011;12087;45.190;5.688;2023-04-26T00:41:13;4.90;;;2.55;;
23812;SDS011;12087;45.190;5.688;2023-04-26T00:46:35;5.38;;;2.30;;
23812;SDS011;12087;45.190;5.688;2023-04-26T00:51:57;4.90;;;2.70;;
23812;SDS011;12087;45.190;5.688;2023-04-26T00:57:21;7.90;;;3.05;;
23812;SDS011;12087;45.190;5.688;2023-04-26T01:02:44;4.22;;;2.20;;
23812;SDS011;12087;45.190;5.688;2023-04-26T01:08:06;4.30;;;1.88;;
23812;SDS011;12087;45.190;5.688;2023-04-26T01:13:30;4.00;;;2.45;;
23812;SDS011;12087;45.190;5.688;2023-04-26T01:18:53;4.38;;;2.53;;
23812;SDS011;12087;45.190;5.688;2023-04-26T01:24:17;5.38;;;2.70;;
23812;SDS011;12087;45.190;5.688;2023-04-26T01:29:39;5.80;;;3.03;;
23812;SDS011;12087;45.190;5.688;2023-04-26T01:35:02;7.05;;;2.83;;
23812;SDS011;12087;45.190;5.688;2023-04-26T01:40:26;3.95;;;2.40;;
23812;SDS011;12087;45.190;5.688;2023-04-26T01:45:48;7.03;;;2.30;;
23812;SDS011;12087;45.190;5.688;2023-04-26T01:51:10;5.30;;;2.85;;
23812;SDS011;12087;45.190;5.688;2023-04-26T01:56:34;4.20;;;2.83;;
23812;SDS011;12087;45.190;5.688;2023-04-26T02:01:56;3.03;;;2.42;;
23812;SDS011;12087;45.190;5.688;2023-04-26T02:07:18;3.28;;;2.42;;
23812;SDS011;12087;45.190;5.688;2023-04-26T02:12:42;4.50;;;2.72;;
23812;SDS011;12087;45.190;5.688;2023-04-26T02:18:04;3.60;;;2.40;;
23812;SDS011;12087;45.190;5.688;2023-04-26T02:23:26;4.35;;;2.50;;
23812;SDS011;12087;45.190;5.688;2023-04-26T02:28:50;2.65;;;2.08;;
23812;SDS011;12087;45.190;5.688;2023-04-26T02:34:12;5.00;;;2.58;;
23812;SDS011;12087;45.190;5.688;2023-04-26T02:39:45;4.95;;;2.35;;
23812;SDS011;12087;45.190;5.688;2023-04-26T02:45:36;4.38;;;2.63;;
23812;SDS011;12087;45.190;5.688;2023-04-26T02:51:47;4.13;;;2.38;;
23812;SDS011;12087;45.190;5.688;2023-04-26T02:57:37;3.78;;;2.22;;
23812;SDS011;12087;45.190;5.688;2023-04-26T03:03:47;4.43;;;2.90;;
23812;SDS011;12087;45.190;5.688;2023-04-26T03:09:22;5.75;;;2.42;;
23812;SDS011;12087;45.190;5.688;2023-04-26T03:14:54;3.38;;;2.25;;
23812;SDS011;12087;45.190;5.688;2023-04-26T03:20:35;7.30;;;2.30;;
23812;SDS011;12087;45.190;5.688;2023-04-26T03:26:23;4.18;;;2.20;;
23812;SDS011;12087;45.190;5.688;2023-04-26T03:31:45;4.78;;;2.70;;
23812;SDS011;12087;45.190;5.688;2023-04-26T03:37:08;4.15;;;2.75;;
23812;SDS011;12087;45.190;5.688;2023-04-26T03:42:33;5.53;;;3.35;;
23812;SDS011;12087;45.190;5.688;2023-04-26T03:54:37;4.50;;;2.55;;
23812;SDS011;12087;45.190;5.688;2023-04-26T04:00:19;5.78;;;2.75;;
23812;SDS011;12087;45.190;5.688;2023-04-26T04:06:07;6.13;;;2.80;;
23812;SDS011;12087;45.190;5.688;2023-04-26T04:11:31;8.15;;;2.70;;
23812;SDS011;12087;45.190;5.688;2023-04-26T04:16:53;6.40;;;3.03;;
23812;SDS011;12087;45.190;5.688;2023-04-26T04:22:15;3.80;;;2.20;;
23812;SDS011;12087;45.190;5.688;2023-04-26T04:27:39;6.35;;;2.80;;
23812;SDS011;12087;45.190;5.688;2023-04-26T04:33:02;4.72;;;2.80;;
23812;SDS011;12087;45.190;5.688;2023-04-26T04:38:25;4.07;;;2.65;;
23812;SDS011;12087;45.190;5.688;2023-04-26T04:43:49;4.05;;;2.45;;
23812;SDS011;12087;45.190;5.688;2023-04-26T04:49:13;7.45;;;3.22;;
23812;SDS011;12087;45.190;5.688;2023-04-26T04:54:35;7.07;;;3.10;;
23812;SDS011;12087;45.190;5.688;2023-04-26T04:59:58;7.85;;;2.80;;
23812;SDS011;12087;45.190;5.688;2023-04-26T05:05:29;8.57;;;3.05;;
23812;SDS011;12087;45.190;5.688;2023-04-26T05:10:51;4.70;;;2.40;;
23812;SDS011;12087;45.190;5.688;2023-04-26T05:16:16;7.30;;;3.50;;
23812;SDS011;12087;45.190;5.688;2023-04-26T05:21:38;8.10;;;3.00;;
23812;SDS011;12087;45.190;5.688;2023-04-26T05:27:01;8.13;;;3.10;;
23812;SDS011;12087;45.190;5.688;2023-04-26T05:32:25;13.57;;;3.13;;
23812;SDS011;12087;45.190;5.688;2023-04-26T05:37:48;6.47;;;3.40;;
23812;SDS011;12087;45.190;5.688;2023-04-26T05:43:29;9.73;;;3.72;;
23812;SDS011;12087;45.190;5.688;2023-04-26T05:48:53;7.43;;;4.45;;
23812;SDS011;12087;45.190;5.688;2023-04-26T05:54:18;9.35;;;4.13;;
23812;SDS011;12087;45.190;5.688;2023-04-26T05:59:43;6.60;;;4.03;;
23812;SDS011;12087;45.190;5.688;2023-04-26T06:05:12;7.45;;;3.92;;
23812;SDS011;12087;45.190;5.688;2023-04-26T06:10:40;6.78;;;3.80;;
23812;SDS011;12087;45.190;5.688;2023-04-26T06:16:03;15.05;;;4.07;;
23812;SDS011;12087;45.190;5.688;2023-04-26T06:21:27;7.95;;;4.28;;
23812;SDS011;12087;45.190;5.688;2023-04-26T06:26:50;6.88;;;3.78;;
23812;SDS011;12087;45.190;5.688;2023-04-26T06:32:12;6.30;;;3.70;;
23812;SDS011;12087;45.190;5.688;2023-04-26T06:37:36;6.55;;;3.85;;
23812;SDS011;12087;45.190;5.688;2023-04-26T06:42:59;11.43;;;3.95;;
23812;SDS011;12087;45.190;5.688;2023-04-26T06:48:22;7.30;;;4.15;;
23812;SDS011;12087;45.190;5.688;2023-04-26T06:53:46;9.25;;;3.80;;
23812;SDS011;12087;45.190;5.688;2023-04-26T06:59:09;7.93;;;3.60;;
23812;SDS011;12087;45.190;5.688;2023-04-26T07:04:31;6.40;;;3.97;;
23812;SDS011;12087;45.190;5.688;2023-04-26T07:09:55;9.85;;;3.92;;
23812;SDS011;12087;45.190;5.688;2023-04-26T07:15:17;8.60;;;3.90;;
23812;SDS011;12087;45.190;5.688;2023-04-26T07:20:40;11.85;;;3.55;;
23812;SDS011;12087;45.190;5.688;2023-04-26T07:26:03;7.28;;;3.80;;
23812;SDS011;12087;45.190;5.688;2023-04-26T07:31:26;8.38;;;4.63;;
23812;SDS011;12087;45.190;5.688;2023-04-26T07:36:48;10.43;;;5.28;;
23812;SDS011;12087;45.190;5.688;2023-04-26T07:42:12;6.65;;;3.95;;
23812;SDS011;12087;45.190;5.688;2023-04-26T07:47:34;10.40;;;3.45;;
23812;SDS011;12087;45.190;5.688;2023-04-26T07:53:04;7.03;;;2.80;;
23812;SDS011;12087;45.190;5.688;2023-04-26T07:58:30;5.72;;;3.08;;
23812;SDS011;12087;45.190;5.688;2023-04-26T08:03:55;6.78;;;3.58;;
23812;SDS011;12087;45.190;5.688;2023-04-26T08:09:18;3.35;;;2.80;;
23812;SDS011;12087;45.190;5.688;2023-04-26T08:14:51;4.10;;;2.85;;
23812;SDS011;12087;45.190;5.688;2023-04-26T08:20:13;9.80;;;3.67;;
23812;SDS011;12087;45.190;5.688;2023-04-26T08:25:35;6.40;;;3.25;;
23812;SDS011;12087;45.190;5.688;2023-04-26T08:31:08;6.95;;;3.65;;
23812;SDS011;12087;45.190;5.688;2023-04-26T08:36:33;8.10;;;3.53;;
23812;SDS011;12087;45.190;5.688;2023-04-26T08:42:04;9.10;;;2.95;;
23812;SDS011;12087;45.190;5.688;2023-04-26T08:47:36;4.43;;;2.75;;
23812;SDS011;12087;45.190;5.688;2023-04-26T08:53:01;4.93;;;2.58;;
23812;SDS011;12087;45.190;5.688;2023-04-26T08:58:23;14.55;;;3.10;;
23812;SDS011;12087;45.190;5.688;2023-04-26T09:03:47;6.18;;;2.88;;
23812;SDS011;12087;45.190;5.688;2023-04-26T09:09:10;4.93;;;2.63;;
23812;SDS011;12087;45.190;5.688;2023-04-26T09:14:37;3.20;;;1.88;;
23812;SDS011;12087;45.190;5.688;2023-04-26T09:20:17;5.03;;;2.60;;
23812;SDS011;12087;45.190;5.688;2023-04-26T09:25:41;4.95;;;2.67;;
23812;SDS011;12087;45.190;5.688;2023-04-26T09:31:03;3.85;;;2.58;;
23812;SDS011;12087;45.190;5.688;2023-04-26T09:36:26;2.72;;;1.92;;
23812;SDS011;12087;45.190;5.688;2023-04-26T09:41:49;5.45;;;1.98;;
23812;SDS011;12087;45.190;5.688;2023-04-26T09:47:11;3.90;;;2.15;;
23812;SDS011;12087;45.190;5.688;2023-04-26T09:52:42;7.13;;;2.30;;
23812;SDS011;12087;45.190;5.688;2023-04-26T09:58:07;4.53;;;1.80;;
23812;SDS011;12087;45.190;5.688;2023-04-26T10:03:30;4.38;;;2.00;;
23812;SDS011;12087;45.190;5.688;2023-04-26T10:08:56;7.75;;;2.13;;
23812;SDS011;12087;45.190;5.688;2023-04-26T10:14:19;5.38;;;2.40;;
23812;SDS011;12087;45.190;5.688;2023-04-26T10:19:41;5.53;;;2.00;;
23812;SDS011;12087;45.190;5.688;2023-04-26T10:25:08;3.35;;;1.73;;
23812;SDS011;12087;45.190;5.688;2023-04-26T10:30:30;4.03;;;1.75;;
23812;SDS011;12087;45.190;5.688;2023-04-26T10:36:00;7.05;;;1.98;;
23812;SDS011;12087;45.190;5.688;2023-04-26T10:41:32;2.65;;;1.90;;
23812;SDS011;12087;45.190;5.688;2023-04-26T10:46:55;4.03;;;1.85;;
23812;SDS011;12087;45.190;5.688;2023-04-26T10:52:17;4.55;;;1.73;;
23812;SDS011;12087;45.190;5.688;2023-04-26T10:57:47;5.50;;;2.25;;
23812;SDS011;12087;45.190;5.688;2023-04-26T11:03:10;5.72;;;2.00;;
23812;SDS011;12087;45.190;5.688;2023-04-26T11:08:32;6.35;;;1.77;;
23812;SDS011;12087;45.190;5.688;2023-04-26T11:13:59;3.60;;;1.40;;
23812;SDS011;12087;45.190;5.688;2023-04-26T11:19:23;5.10;;;1.30;;
23812;SDS011;12087;45.190;5.688;2023-04-26T11:24:48;3.63;;;1.20;;
23812;SDS011;12087;45.190;5.688;2023-04-26T11:30:13;3.60;;;1.50;;
23812;SDS011;12087;45.190;5.688;2023-04-26T11:35:38;3.05;;;1.35;;
23812;SDS011;12087;45.190;5.688;2023-04-26T11:41:01;4.07;;;0.95;;
23812;SDS011;12087;45.190;5.688;2023-04-26T11:46:25;3.17;;;1.25;;
23812;SDS011;12087;45.190;5.688;2023-04-26T11:51:47;5.07;;;1.25;;
23812;SDS011;12087;45.190;5.688;2023-04-26T11:57:13;4.13;;;1.17;;
23812;SDS011;12087;45.190;5.688;2023-04-26T12:02:37;3.38;;;1.23;;
23812;SDS011;12087;45.190;5.688;2023-04-26T12:08:00;2.22;;;1.23;;
23812;SDS011;12087;45.190;5.688;2023-04-26T12:13:23;3.28;;;1.30;;
23812;SDS011;12087;45.190;5.688;2023-04-26T12:18:50;2.90;;;0.85;;
23812;SDS011;12087;45.190;5.688;2023-04-26T12:24:21;3.67;;;1.10;;
23812;SDS011;12087;45.190;5.688;2023-04-26T12:29:44;4.57;;;1.00;;
23812;SDS011;12087;45.190;5.688;2023-04-26T12:35:08;2.83;;;1.10;;
23812;SDS011;12087;45.190;5.688;2023-04-26T12:40:30;3.65;;;1.10;;
23812;SDS011;12087;45.190;5.688;2023-04-26T12:46:00;4.97;;;1.25;;
23812;SDS011;12087;45.190;5.688;2023-04-26T12:51:40;2.00;;;1.02;;
23812;SDS011;12087;45.190;5.688;2023-04-26T12:57:02;1.70;;;1.10;;
23812;SDS011;12087;45.190;5.688;2023-04-26T13:02:25;2.42;;;0.98;;
23812;SDS011;12087;45.190;5.688;2023-04-26T13:07:50;1.17;;;1.00;;
23812;SDS011;12087;45.190;5.688;2023-04-26T13:13:12;2.30;;;1.15;;
23812;SDS011;12087;45.190;5.688;2023-04-26T13:18:35;4.50;;;0.90;;
23812;SDS011;12087;45.190;5.688;2023-04-26T13:23:58;2.05;;;1.08;;
23812;SDS011;12087;45.190;5.688;2023-04-26T13:29:21;2.72;;;0.93;;
23812;SDS011;12087;45.190;5.688;2023-04-26T13:34:43;6.93;;;0.77;;
23812;SDS011;12087;45.190;5.688;2023-04-26T13:40:08;1.90;;;0.90;;
23812;SDS011;12087;45.190;5.688;2023-04-26T13:45:31;5.80;;;1.40;;
23812;SDS011;12087;45.190;5.688;2023-04-26T13:50:53;5.57;;;0.93;;
23812;SDS011;12087;45.190;5.688;2023-04-26T13:56:17;4.57;;;0.85;;
23812;SDS011;12087;45.190;5.688;2023-04-26T14:01:40;6.40;;;1.35;;
23812;SDS011;12087;45.190;5.688;2023-04-26T14:07:02;1.75;;;0.70;;
23812;SDS011;12087;45.190;5.688;2023-04-26T14:12:26;5.57;;;0.85;;
23812;SDS011;12087;45.190;5.688;2023-04-26T14:17:49;3.83;;;0.80;;
23812;SDS011;12087;45.190;5.688;2023-04-26T14:23:12;2.95;;;0.90;;
23812;SDS011;12087;45.190;5.688;2023-04-26T14:28:35;2.70;;;0.98;;
23812;SDS011;12087;45.190;5.688;2023-04-26T14:33:57;2.60;;;1.25;;
23812;SDS011;12087;45.190;5.688;2023-04-26T14:39:19;5.30;;;1.73;;
23812;SDS011;12087;45.190;5.688;2023-04-26T14:44:44;2.70;;;1.35;;
23812;SDS011;12087;45.190;5.688;2023-04-26T14:50:08;4.05;;;1.20;;
23812;SDS011;12087;45.190;5.688;2023-04-26T14:55:32;2.35;;;1.00;;
23812;SDS011;12087;45.190;5.688;2023-04-26T15:00:56;1.00;;;0.60;;
23812;SDS011;12087;45.190;5.688;2023-04-26T15:06:18;2.28;;;0.80;;
23812;SDS011;12087;45.190;5.688;2023-04-26T15:11:40;3.47;;;1.17;;
23812;SDS011;12087;45.190;5.688;2023-04-26T15:17:04;0.60;;;0.60;;
23812;SDS011;12087;45.190;5.688;2023-04-26T15:22:26;3.28;;;0.90;;
23812;SDS011;12087;45.190;5.688;2023-04-26T15:27:49;2.72;;;0.93;;
23812;SDS011;12087;45.190;5.688;2023-04-26T15:33:12;2.70;;;1.33;;
23812;SDS011;12087;45.190;5.688;2023-04-26T15:38:37;3.85;;;1.08;;
23812;SDS011;12087;45.190;5.688;2023-04-26T15:44:01;1.35;;;0.80;;
23812;SDS011;12087;45.190;5.688;2023-04-26T15:49:24;1.85;;;0.95;;
23812;SDS011;12087;45.190;5.688;2023-04-26T15:54:46;1.35;;;0.70;;
23812;SDS011;12087;45.190;5.688;2023-04-26T16:00:09;1.20;;;0.52;;
23812;SDS011;12087;45.190;5.688;2023-04-26T16:05:34;1.27;;;0.90;;
23812;SDS011;12087;45.190;5.688;2023-04-26T16:10:57;1.13;;;0.52;;
23812;SDS011;12087;45.190;5.688;2023-04-26T16:16:20;3.85;;;0.70;;
23812;SDS011;12087;45.190;5.688;2023-04-26T16:21:43;2.75;;;0.88;;
23812;SDS011;12087;45.190;5.688;2023-04-26T16:27:06;1.50;;;0.80;;
23812;SDS011;12087;45.190;5.688;2023-04-26T16:32:28;3.35;;;1.50;;
23812;SDS011;12087;45.190;5.688;2023-04-26T16:37:52;1.42;;;0.80;;
23812;SDS011;12087;45.190;5.688;2023-04-26T16:43:14;1.30;;;0.80;;
23812;SDS011;12087;45.190;5.688;2023-04-26T16:48:37;3.72;;;1.00;;
23812;SDS011;12087;45.190;5.688;2023-04-26T16:54:01;2.65;;;1.20;;
23812;SDS011;12087;45.190;5.688;2023-04-26T16:59:23;3.60;;;0.70;;
23812;SDS011;12087;45.190;5.688;2023-04-26T17:04:46;3.15;;;0.80;;
23812;SDS011;12087;45.190;5.688;2023-04-26T17:10:10;2.40;;;0.98;;
23812;SDS011;12087;45.190;5.688;2023-04-26T17:15:32;2.25;;;0.80;;
23812;SDS011;12087;45.190;5.688;2023-04-26T17:20:55;3.78;;;1.10;;
23812;SDS011;12087;45.190;5.688;2023-04-26T17:26:18;8.63;;;0.95;;
23812;SDS011;12087;45.190;5.688;2023-04-26T17:31:41;5.35;;;0.90;;
23812;SDS011;12087;45.190;5.688;2023-04-26T17:37:03;1.77;;;1.00;;
23812;SDS011;12087;45.190;5.688;2023-04-26T17:42:27;6.00;;;0.80;;
23812;SDS011;12087;45.190;5.688;2023-04-26T17:47:49;1.52;;;1.23;;
23812;SDS011;12087;45.190;5.688;2023-04-26T17:53:12;1.20;;;0.82;;
23812;SDS011;12087;45.190;5.688;2023-04-26T17:58:35;1.60;;;0.80;;
23812;SDS011;12087;45.190;5.688;2023-04-26T18:03:57;4.75;;;0.90;;
23812;SDS011;12087;45.190;5.688;2023-04-26T18:09:20;1.20;;;0.60;;
23812;SDS011;12087;45.190;5.688;2023-04-26T18:14:43;12.85;;;0.95;;
23812;SDS011;12087;45.190;5.688;2023-04-26T18:20:06;2.75;;;0.90;;
23812;SDS011;12087;45.190;5.688;2023-04-26T18:25:30;1.88;;;1.13;;
23812;SDS011;12087;45.190;5.688;2023-04-26T18:30:56;2.75;;;0.80;;
23812;SDS011;12087;45.190;5.688;2023-04-26T18:36:18;3.45;;;1.20;;
23812;SDS011;12087;45.190;5.688;2023-04-26T18:41:41;6.82;;;1.40;;
23812;SDS011;12087;45.190;5.688;2023-04-26T18:47:05;3.92;;;1.25;;
23812;SDS011;12087;45.190;5.688;2023-04-26T18:52:27;2.95;;;0.82;;
23812;SDS011;12087;45.190;5.688;2023-04-26T18:57:49;2.60;;;1.40;;
23812;SDS011;12087;45.190;5.688;2023-04-26T19:03:13;4.65;;;1.02;;
23812;SDS011;12087;45.190;5.688;2023-04-26T19:08:35;4.72;;;1.00;;
23812;SDS011;12087;45.190;5.688;2023-04-26T19:13:57;2.35;;;0.90;;
23812;SDS011;12087;45.190;5.688;2023-04-26T19:19:21;1.83;;;1.00;;
23812;SDS011;12087;45.190;5.688;2023-04-26T19:24:46;3.38;;;1.10;;
23812;SDS011;12087;45.190;5.688;2023-04-26T19:30:10;2.83;;;1.23;;
23812;SDS011;12087;45.190;5.688;2023-04-26T19:35:35;3.90;;;1.33;;
23812;SDS011;12087;45.190;5.688;2023-04-26T19:40:57;2.40;;;1.00;;
23812;SDS011;12087;45.190;5.688;2023-04-26T19:46:21;1.90;;;1.30;;
23812;SDS011;12087;45.190;5.688;2023-04-26T19:52:00;1.95;;;1.30;;
23812;SDS011;12087;45.190;5.688;2023-04-26T20:09:51;4.13;;;2.08;;
23812;SDS011;12087;45.190;5.688;2023-04-26T20:15:13;3.88;;;1.58;;
23812;SDS011;12087;45.190;5.688;2023-04-26T20:20:36;3.17;;;1.70;;
23812;SDS011;12087;45.190;5.688;2023-04-26T20:25:59;5.50;;;1.80;;
23812;SDS011;12087;45.190;5.688;2023-04-26T20:31:21;4.35;;;1.73;;
23812;SDS011;12087;45.190;5.688;2023-04-26T20:36:44;2.70;;;1.73;;
23812;SDS011;12087;45.190;5.688;2023-04-26T20:42:08;5.55;;;1.60;;
23812;SDS011;12087;45.190;5.688;2023-04-26T20:47:30;3.72;;;1.95;;
23812;SDS011;12087;45.190;5.688;2023-04-26T20:52:52;9.00;;;4.47;;
23812;SDS011;12087;45.190;5.688;2023-04-26T20:58:16;8.77;;;3.15;;
23812;SDS011;12087;45.190;5.688;2023-04-26T21:03:38;3.78;;;2.42;;
23812;SDS011;12087;45.190;5.688;2023-04-26T21:09:00;3.17;;;1.60;;
23812;SDS011;12087;45.190;5.688;2023-04-26T21:14:24;2.60;;;1.45;;
23812;SDS011;12087;45.190;5.688;2023-04-26T21:19:47;3.20;;;1.77;;
23812;SDS011;12087;45.190;5.688;2023-04-26T21:25:09;3.28;;;2.40;;
23812;SDS011;12087;45.190;5.688;2023-04-26T21:30:34;4.00;;;2.85;;
23812;SDS011;12087;45.190;5.688;2023-04-26T21:35:57;3.28;;;1.90;;
23812;SDS011;12087;45.190;5.688;2023-04-26T21:41:19;6.18;;;2.55;;
23812;SDS011;12087;45.190;5.688;2023-04-26T21:46:44;3.35;;;1.98;;
23812;SDS011;12087;45.190;5.688;2023-04-26T21:52:06;3.22;;;1.70;;
23812;SDS011;12087;45.190;5.688;2023-04-26T21:57:28;3.35;;;1.95;;
23812;SDS011;12087;45.190;5.688;2023-04-26T22:02:52;3.83;;;1.90;;
23812;SDS011;12087;45.190;5.688;2023-04-26T22:08:14;3.03;;;1.77;;
23812;SDS011;12087;45.190;5.688;2023-04-26T22:13:36;2.47;;;1.77;;
23812;SDS011;12087;45.190;5.688;2023-04-26T22:19:00;6.07;;;1.60;;
23812;SDS011;12087;45.190;5.688;2023-04-26T22:24:23;2.55;;;1.80;;
23812;SDS011;12087;45.190;5.688;2023-04-26T22:29:45;7.95;;;2.85;;
23812;SDS011;12087;45.190;5.688;2023-04-26T22:35:09;3.78;;;2.17;;
23812;SDS011;12087;45.190;5.688;2023-04-26T22:40:32;1.90;;;1.40;;
23812;SDS011;12087;45.190;5.688;2023-04-26T22:45:54;2.53;;;1.77;;
23812;SDS011;12087;45.190;5.688;2023-04-26T22:51:18;2.88;;;1.38;;
23812;SDS011;12087;45.190;5.688;2023-04-26T22:56:40;3.08;;;1.50;;
23812;SDS011;12087;45.190;5.688;2023-04-26T23:02:02;5.72;;;1.67;;
23812;SDS011;12087;45.190;5.688;2023-04-26T23:07:25;4.13;;;2.33;;
23812;SDS011;12087;45.190;5.688;2023-04-26T23:12:48;2.65;;;1.80;;
23812;SDS011;12087;45.190;5.688;2023-04-26T23:18:10;3.75;;;2.33;;
23812;SDS011;12087;45.190;5.688;2023-04-26T23:23:34;4.88;;;2.38;;
23812;SDS011;12087;45.190;5.688;2023-04-26T23:28:56;2.10;;;1.50;;
23812;SDS011;12087;45.190;5.688;2023-04-26T23:34:18;2.33;;;1.98;;
23812;SDS011;12087;45.190;5.688;2023-04-26T23:39:42;6.65;;;2.17;;
23812;SDS011;12087;45.190;5.688;2023-04-26T23:45:04;1.90;;;1.70;;
23812;SDS011;12087;45.190;5.688;2023-04-26T23:50:28;2.90;;;1.88;;
23812;SDS011;12087;45.190;5.688;2023-04-26T23:55:52;2.72;;;1.73;;
